sensor_id;sensor_type;location;lat;lon;timestamp;temperature;humidity
56428;DHT22;42331;53.578;9.760;2023-02-01T00:02:29;5.20;99.90
56428;DHT22;42331;53.578;9.760;2023-02-01T00:04:59;5.20;99.90
56428;DHT22;42331;53.578;9.760;2023-02-01T00:07:30;5.20;99.90
56428;DHT22;42331;53.578;9.760;2023-02-01T00:10:01;5.30;99.90
56428;DHT22;42331;53.578;9.760;2023-02-01T00:12:31;5.30;99.90
56428;DHT22;42331;53.578;9.760;2023-02-01T00:15:02;5.30;99.90
56428;DHT22;42331;53.578;9.760;2023-02-01T00:17:33;5.30;99.90
56428;DHT22;42331;53.578;9.760;2023-02-01T00:20:04;5.40;99.90
56428;DHT22;42331;53.578;9.760;2023-02-01T00:22:35;5.40;99.90
56428;DHT22;42331;53.578;9.760;2023-02-01T00:25:06;5.40;99.90
56428;DHT22;42331;53.578;9.760;2023-02-01T00:27:37;5.40;99.90
56428;DHT22;42331;53.578;9.760;2023-02-01T00:30:08;5.40;99.90
56428;DHT22;42331;53.578;9.760;2023-02-01T00:32:39;5.40;99.90
56428;DHT22;42331;53.578;9.760;2023-02-01T00:35:09;5.40;99.90
56428;DHT22;42331;53.578;9.760;2023-02-01T00:37:40;5.40;99.90
56428;DHT22;42331;53.578;9.760;2023-02-01T00:40:11;5.50;99.90
56428;DHT22;42331;53.578;9.760;2023-02-01T00:42:42;5.50;99.90
56428;DHT22;42331;53.578;9.760;2023-02-01T00:45:12;5.60;99.90
56428;DHT22;42331;53.578;9.760;2023-02-01T00:47:43;5.50;99.90
56428;DHT22;42331;53.578;9.760;2023-02-01T00:50:14;5.60;99.90
56428;DHT22;42331;53.578;9.760;2023-02-01T00:52:45;5.60;99.90
56428;DHT22;42331;53.578;9.760;2023-02-01T00:55:15;5.50;99.90
56428;DHT22;42331;53.578;9.760;2023-02-01T00:57:46;5.60;99.90
56428;DHT22;42331;53.578;9.760;2023-02-01T01:00:17;5.60;99.90
56428;DHT22;42331;53.578;9.760;2023-02-01T01:02:48;5.60;99.90
56428;DHT22;42331;53.578;9.760;2023-02-01T01:05:19;5.60;99.90
56428;DHT22;42331;53.578;9.760;2023-02-01T01:07:50;5.60;99.90
56428;DHT22;42331;53.578;9.760;2023-02-01T01:10:20;5.60;99.90
56428;DHT22;42331;53.578;9.760;2023-02-01T01:12:51;5.60;99.90
56428;DHT22;42331;53.578;9.760;2023-02-01T01:15:22;5.60;99.90
56428;DHT22;42331;53.578;9.760;2023-02-01T01:17:52;5.60;99.90
56428;DHT22;42331;53.578;9.760;2023-02-01T01:20:23;5.60;99.90
56428;DHT22;42331;53.578;9.760;2023-02-01T01:22:54;5.60;99.90
56428;DHT22;42331;53.578;9.760;2023-02-01T01:25:24;5.70;99.90
56428;DHT22;42331;53.578;9.760;2023-02-01T01:27:55;5.80;99.90
56428;DHT22;42331;53.578;9.760;2023-02-01T01:30:25;5.70;99.90
56428;DHT22;42331;53.578;9.760;2023-02-01T01:32:56;5.70;99.90
56428;DHT22;42331;53.578;9.760;2023-02-01T01:35:29;5.60;99.90
56428;DHT22;42331;53.578;9.760;2023-02-01T01:38:02;5.70;99.90
56428;DHT22;42331;53.578;9.760;2023-02-01T01:40:32;5.70;99.90
56428;DHT22;42331;53.578;9.760;2023-02-01T01:43:05;5.80;99.90
56428;DHT22;42331;53.578;9.760;2023-02-01T01:45:42;5.70;99.90
56428;DHT22;42331;53.578;9.760;2023-02-01T01:48:23;5.70;99.90
56428;DHT22;42331;53.578;9.760;2023-02-01T01:51:00;5.80;99.90
56428;DHT22;42331;53.578;9.760;2023-02-01T01:53:35;5.80;99.90
56428;DHT22;42331;53.578;9.760;2023-02-01T01:56:07;5.80;99.90
56428;DHT22;42331;53.578;9.760;2023-02-01T01:58:38;5.80;99.90
56428;DHT22;42331;53.578;9.760;2023-02-01T02:01:09;5.90;99.90
56428;DHT22;42331;53.578;9.760;2023-02-01T02:03:43;5.90;99.90
56428;DHT22;42331;53.578;9.760;2023-02-01T02:06:42;5.90;99.90
56428;DHT22;42331;53.578;9.760;2023-02-01T02:09:16;5.90;99.90
56428;DHT22;42331;53.578;9.760;2023-02-01T02:11:47;5.80;99.90
56428;DHT22;42331;53.578;9.760;2023-02-01T02:14:20;5.80;99.90
56428;DHT22;42331;53.578;9.760;2023-02-01T02:22:10;5.60;99.90
56428;DHT22;42331;53.578;9.760;2023-02-01T02:28:11;5.50;99.90
56428;DHT22;42331;53.578;9.760;2023-02-01T02:31:22;5.50;99.90
56428;DHT22;42331;53.578;9.760;2023-02-01T02:45:54;5.40;99.90
56428;DHT22;42331;53.578;9.760;2023-02-01T02:48:47;5.30;99.90
56428;DHT22;42331;53.578;9.760;2023-02-01T02:51:29;5.30;99.90
56428;DHT22;42331;53.578;9.760;2023-02-01T02:54:29;5.30;99.90
56428;DHT22;42331;53.578;9.760;2023-02-01T03:00:11;5.40;99.90
56428;DHT22;42331;53.578;9.760;2023-02-01T03:03:01;5.50;99.90
56428;DHT22;42331;53.578;9.760;2023-02-01T03:05:51;5.40;99.90
56428;DHT22;42331;53.578;9.760;2023-02-01T03:08:24;5.40;99.90
56428;DHT22;42331;53.578;9.760;2023-02-01T03:11:16;5.40;99.90
56428;DHT22;42331;53.578;9.760;2023-02-01T03:13:57;5.40;99.90
56428;DHT22;42331;53.578;9.760;2023-02-01T03:16:32;5.30;99.90
56428;DHT22;42331;53.578;9.760;2023-02-01T03:19:24;5.30;99.90
56428;DHT22;42331;53.578;9.760;2023-02-01T03:22:01;5.20;99.90
56428;DHT22;42331;53.578;9.760;2023-02-01T03:24:46;5.00;99.90
56428;DHT22;42331;53.578;9.760;2023-02-01T03:27:27;4.90;99.90
56428;DHT22;42331;53.578;9.760;2023-02-01T03:32:42;4.80;99.90
56428;DHT22;42331;53.578;9.760;2023-02-01T03:44:02;4.80;99.90
56428;DHT22;42331;53.578;9.760;2023-02-01T03:46:42;4.80;99.90
56428;DHT22;42331;53.578;9.760;2023-02-01T03:49:26;4.90;99.90
56428;DHT22;42331;53.578;9.760;2023-02-01T03:51:58;4.80;99.90
56428;DHT22;42331;53.578;9.760;2023-02-01T03:54:30;4.90;99.90
56428;DHT22;42331;53.578;9.760;2023-02-01T03:57:07;4.90;99.90
56428;DHT22;42331;53.578;9.760;2023-02-01T03:59:41;5.00;99.90
56428;DHT22;42331;53.578;9.760;2023-02-01T04:02:12;5.00;99.90
56428;DHT22;42331;53.578;9.760;2023-02-01T04:04:42;5.10;99.90
56428;DHT22;42331;53.578;9.760;2023-02-01T04:07:13;5.00;99.90
56428;DHT22;42331;53.578;9.760;2023-02-01T04:09:44;5.00;99.90
56428;DHT22;42331;53.578;9.760;2023-02-01T04:12:14;5.00;99.90
56428;DHT22;42331;53.578;9.760;2023-02-01T04:14:45;5.00;99.90
56428;DHT22;42331;53.578;9.760;2023-02-01T04:17:16;5.00;99.90
56428;DHT22;42331;53.578;9.760;2023-02-01T04:19:46;5.00;99.90
56428;DHT22;42331;53.578;9.760;2023-02-01T04:22:17;5.00;99.90
56428;DHT22;42331;53.578;9.760;2023-02-01T04:24:48;5.00;99.90
56428;DHT22;42331;53.578;9.760;2023-02-01T04:27:18;5.00;99.90
56428;DHT22;42331;53.578;9.760;2023-02-01T04:29:49;5.00;99.90
56428;DHT22;42331;53.578;9.760;2023-02-01T04:32:20;5.00;99.90
56428;DHT22;42331;53.578;9.760;2023-02-01T04:34:51;5.00;99.90
56428;DHT22;42331;53.578;9.760;2023-02-01T04:37:21;4.90;99.90
56428;DHT22;42331;53.578;9.760;2023-02-01T04:39:52;4.80;99.90
56428;DHT22;42331;53.578;9.760;2023-02-01T04:42:23;4.80;99.90
56428;DHT22;42331;53.578;9.760;2023-02-01T04:44:53;4.80;99.90
56428;DHT22;42331;53.578;9.760;2023-02-01T04:47:24;4.70;99.90
56428;DHT22;42331;53.578;9.760;2023-02-01T04:49:55;4.70;99.90
56428;DHT22;42331;53.578;9.760;2023-02-01T04:52:25;4.70;99.90
56428;DHT22;42331;53.578;9.760;2023-02-01T04:54:57;4.60;99.90
56428;DHT22;42331;53.578;9.760;2023-02-01T04:57:29;4.60;99.90
56428;DHT22;42331;53.578;9.760;2023-02-01T05:00:00;4.50;99.90
56428;DHT22;42331;53.578;9.760;2023-02-01T05:02:31;4.30;99.90
56428;DHT22;42331;53.578;9.760;2023-02-01T05:05:02;4.20;99.90
56428;DHT22;42331;53.578;9.760;2023-02-01T05:07:33;4.00;99.90
56428;DHT22;42331;53.578;9.760;2023-02-01T05:10:04;3.90;99.90
56428;DHT22;42331;53.578;9.760;2023-02-01T05:12:35;3.80;99.90
56428;DHT22;42331;53.578;9.760;2023-02-01T05:15:25;3.70;99.90
56428;DHT22;42331;53.578;9.760;2023-02-01T05:17:56;3.70;99.90
56428;DHT22;42331;53.578;9.760;2023-02-01T05:20:26;3.60;99.90
56428;DHT22;42331;53.578;9.760;2023-02-01T05:22:57;3.60;99.90
56428;DHT22;42331;53.578;9.760;2023-02-01T05:25:28;3.60;99.90
56428;DHT22;42331;53.578;9.760;2023-02-01T05:27:58;3.60;99.90
56428;DHT22;42331;53.578;9.760;2023-02-01T05:30:29;3.50;99.90
56428;DHT22;42331;53.578;9.760;2023-02-01T05:33:00;3.40;99.90
56428;DHT22;42331;53.578;9.760;2023-02-01T05:35:30;3.40;99.90
56428;DHT22;42331;53.578;9.760;2023-02-01T05:38:01;3.40;99.90
56428;DHT22;42331;53.578;9.760;2023-02-01T05:40:32;3.40;99.90
56428;DHT22;42331;53.578;9.760;2023-02-01T05:43:02;3.30;99.90
56428;DHT22;42331;53.578;9.760;2023-02-01T05:45:33;3.30;99.90
56428;DHT22;42331;53.578;9.760;2023-02-01T05:48:04;3.20;99.90
56428;DHT22;42331;53.578;9.760;2023-02-01T05:50:35;3.20;99.90
56428;DHT22;42331;53.578;9.760;2023-02-01T05:53:05;3.20;99.90
56428;DHT22;42331;53.578;9.760;2023-02-01T05:55:36;3.20;99.90
56428;DHT22;42331;53.578;9.760;2023-02-01T05:58:07;3.20;99.90
56428;DHT22;42331;53.578;9.760;2023-02-01T06:00:38;3.20;99.90
56428;DHT22;42331;53.578;9.760;2023-02-01T06:03:09;3.30;99.90
56428;DHT22;42331;53.578;9.760;2023-02-01T06:05:40;3.30;99.90
56428;DHT22;42331;53.578;9.760;2023-02-01T06:08:11;3.30;99.90
56428;DHT22;42331;53.578;9.760;2023-02-01T06:10:42;3.30;99.90
56428;DHT22;42331;53.578;9.760;2023-02-01T06:13:13;3.40;99.90
56428;DHT22;42331;53.578;9.760;2023-02-01T06:15:43;3.50;99.90
56428;DHT22;42331;53.578;9.760;2023-02-01T06:18:14;3.50;99.90
56428;DHT22;42331;53.578;9.760;2023-02-01T06:20:54;3.50;99.90
56428;DHT22;42331;53.578;9.760;2023-02-01T06:23:26;3.60;99.90
56428;DHT22;42331;53.578;9.760;2023-02-01T06:26:05;3.70;99.90
56428;DHT22;42331;53.578;9.760;2023-02-01T06:28:37;3.60;99.90
56428;DHT22;42331;53.578;9.760;2023-02-01T06:31:09;3.70;99.90
56428;DHT22;42331;53.578;9.760;2023-02-01T06:33:40;3.80;99.90
56428;DHT22;42331;53.578;9.760;2023-02-01T06:36:11;3.80;99.90
56428;DHT22;42331;53.578;9.760;2023-02-01T06:38:46;3.90;99.90
56428;DHT22;42331;53.578;9.760;2023-02-01T06:41:17;3.90;99.90
56428;DHT22;42331;53.578;9.760;2023-02-01T06:43:51;3.90;99.90
56428;DHT22;42331;53.578;9.760;2023-02-01T06:46:21;4.00;99.90
56428;DHT22;42331;53.578;9.760;2023-02-01T06:48:53;4.00;99.90
56428;DHT22;42331;53.578;9.760;2023-02-01T06:51:27;4.00;99.90
56428;DHT22;42331;53.578;9.760;2023-02-01T06:53:58;4.00;99.90
56428;DHT22;42331;53.578;9.760;2023-02-01T06:56:29;4.00;99.90
56428;DHT22;42331;53.578;9.760;2023-02-01T06:59:04;4.00;99.90
56428;DHT22;42331;53.578;9.760;2023-02-01T07:01:35;4.20;99.90
56428;DHT22;42331;53.578;9.760;2023-02-01T07:04:05;4.20;99.90
56428;DHT22;42331;53.578;9.760;2023-02-01T07:06:36;4.30;99.90
56428;DHT22;42331;53.578;9.760;2023-02-01T07:09:08;4.30;99.90
56428;DHT22;42331;53.578;9.760;2023-02-01T07:11:38;4.30;99.90
56428;DHT22;42331;53.578;9.760;2023-02-01T07:14:13;4.30;99.90
56428;DHT22;42331;53.578;9.760;2023-02-01T07:16:44;4.40;99.90
56428;DHT22;42331;53.578;9.760;2023-02-01T07:19:15;4.30;99.90
56428;DHT22;42331;53.578;9.760;2023-02-01T07:21:45;4.50;99.90
56428;DHT22;42331;53.578;9.760;2023-02-01T07:24:16;4.50;99.90
56428;DHT22;42331;53.578;9.760;2023-02-01T07:26:47;4.60;99.90
56428;DHT22;42331;53.578;9.760;2023-02-01T07:29:18;4.60;99.90
56428;DHT22;42331;53.578;9.760;2023-02-01T07:31:49;4.50;99.90
56428;DHT22;42331;53.578;9.760;2023-02-01T07:34:20;4.60;99.90
56428;DHT22;42331;53.578;9.760;2023-02-01T07:36:50;4.70;99.90
56428;DHT22;42331;53.578;9.760;2023-02-01T07:39:21;4.80;99.90
56428;DHT22;42331;53.578;9.760;2023-02-01T07:41:52;4.80;99.90
56428;DHT22;42331;53.578;9.760;2023-02-01T07:44:22;4.90;99.90
56428;DHT22;42331;53.578;9.760;2023-02-01T07:46:53;4.90;99.90
56428;DHT22;42331;53.578;9.760;2023-02-01T07:49:24;5.00;99.90
56428;DHT22;42331;53.578;9.760;2023-02-01T07:51:55;5.00;99.90
56428;DHT22;42331;53.578;9.760;2023-02-01T07:54:25;5.00;99.90
56428;DHT22;42331;53.578;9.760;2023-02-01T07:56:56;5.00;99.90
56428;DHT22;42331;53.578;9.760;2023-02-01T07:59:27;5.00;99.90
56428;DHT22;42331;53.578;9.760;2023-02-01T08:01:57;5.10;99.90
56428;DHT22;42331;53.578;9.760;2023-02-01T08:04:28;5.10;99.90
56428;DHT22;42331;53.578;9.760;2023-02-01T08:06:59;5.10;99.90
56428;DHT22;42331;53.578;9.760;2023-02-01T08:09:30;5.10;99.90
56428;DHT22;42331;53.578;9.760;2023-02-01T08:12:01;5.10;99.90
56428;DHT22;42331;53.578;9.760;2023-02-01T08:14:32;5.10;99.90
56428;DHT22;42331;53.578;9.760;2023-02-01T08:17:02;5.00;99.90
56428;DHT22;42331;53.578;9.760;2023-02-01T08:19:33;5.10;99.90
56428;DHT22;42331;53.578;9.760;2023-02-01T08:22:04;5.10;99.90
56428;DHT22;42331;53.578;9.760;2023-02-01T08:24:37;5.20;99.90
56428;DHT22;42331;53.578;9.760;2023-02-01T08:27:10;5.40;99.90
56428;DHT22;42331;53.578;9.760;2023-02-01T08:29:42;5.50;99.90
56428;DHT22;42331;53.578;9.760;2023-02-01T08:32:13;5.40;99.90
56428;DHT22;42331;53.578;9.760;2023-02-01T08:34:44;5.40;99.90
56428;DHT22;42331;53.578;9.760;2023-02-01T08:37:14;5.30;99.90
56428;DHT22;42331;53.578;9.760;2023-02-01T08:39:45;5.40;99.90
56428;DHT22;42331;53.578;9.760;2023-02-01T08:42:17;5.40;99.90
56428;DHT22;42331;53.578;9.760;2023-02-01T08:45:07;5.40;99.90
56428;DHT22;42331;53.578;9.760;2023-02-01T08:47:40;5.40;99.90
56428;DHT22;42331;53.578;9.760;2023-02-01T08:50:11;5.50;99.90
56428;DHT22;42331;53.578;9.760;2023-02-01T08:52:42;5.50;99.90
56428;DHT22;42331;53.578;9.760;2023-02-01T08:55:14;5.70;99.90
56428;DHT22;42331;53.578;9.760;2023-02-01T08:57:46;5.70;99.90
56428;DHT22;42331;53.578;9.760;2023-02-01T09:00:18;5.80;99.90
56428;DHT22;42331;53.578;9.760;2023-02-01T09:02:48;5.70;99.90
56428;DHT22;42331;53.578;9.760;2023-02-01T09:05:19;5.70;99.90
56428;DHT22;42331;53.578;9.760;2023-02-01T09:07:53;5.80;99.90
56428;DHT22;42331;53.578;9.760;2023-02-01T09:10:23;5.90;99.90
56428;DHT22;42331;53.578;9.760;2023-02-01T09:12:54;6.00;99.90
56428;DHT22;42331;53.578;9.760;2023-02-01T09:15:25;6.00;99.90
56428;DHT22;42331;53.578;9.760;2023-02-01T09:17:55;5.90;99.90
56428;DHT22;42331;53.578;9.760;2023-02-01T09:20:26;5.80;99.90
56428;DHT22;42331;53.578;9.760;2023-02-01T09:22:57;5.70;99.90
56428;DHT22;42331;53.578;9.760;2023-02-01T09:25:27;5.60;99.90
56428;DHT22;42331;53.578;9.760;2023-02-01T09:27:58;5.60;99.90
56428;DHT22;42331;53.578;9.760;2023-02-01T09:30:29;5.70;99.90
56428;DHT22;42331;53.578;9.760;2023-02-01T09:33:00;5.80;99.90
56428;DHT22;42331;53.578;9.760;2023-02-01T09:35:30;5.80;99.90
56428;DHT22;42331;53.578;9.760;2023-02-01T09:38:01;6.00;99.90
56428;DHT22;42331;53.578;9.760;2023-02-01T09:40:34;6.00;99.90
56428;DHT22;42331;53.578;9.760;2023-02-01T09:48:56;6.20;99.90
56428;DHT22;42331;53.578;9.760;2023-02-01T09:51:37;6.30;99.90
56428;DHT22;42331;53.578;9.760;2023-02-01T09:59:44;6.40;99.90
56428;DHT22;42331;53.578;9.760;2023-02-01T10:02:26;6.50;99.90
56428;DHT22;42331;53.578;9.760;2023-02-01T10:04:59;6.40;99.90
56428;DHT22;42331;53.578;9.760;2023-02-01T10:07:39;6.40;99.90
56428;DHT22;42331;53.578;9.760;2023-02-01T10:10:38;6.30;99.90
56428;DHT22;42331;53.578;9.760;2023-02-01T10:13:50;6.30;99.90
56428;DHT22;42331;53.578;9.760;2023-02-01T10:22:33;6.10;99.90
56428;DHT22;42331;53.578;9.760;2023-02-01T10:25:49;6.00;99.90
56428;DHT22;42331;53.578;9.760;2023-02-01T10:28:36;6.00;99.90
56428;DHT22;42331;53.578;9.760;2023-02-01T10:31:17;5.80;99.90
56428;DHT22;42331;53.578;9.760;2023-02-01T10:34:11;5.80;99.90
56428;DHT22;42331;53.578;9.760;2023-02-01T10:37:31;5.90;99.90
56428;DHT22;42331;53.578;9.760;2023-02-01T10:40:16;5.80;99.90
56428;DHT22;42331;53.578;9.760;2023-02-01T10:42:59;5.80;99.90
56428;DHT22;42331;53.578;9.760;2023-02-01T10:45:43;5.90;99.90
56428;DHT22;42331;53.578;9.760;2023-02-01T10:48:31;5.90;99.90
56428;DHT22;42331;53.578;9.760;2023-02-01T10:57:53;5.80;99.90
56428;DHT22;42331;53.578;9.760;2023-02-01T11:01:00;5.80;99.90
56428;DHT22;42331;53.578;9.760;2023-02-01T11:04:14;5.80;99.90
56428;DHT22;42331;53.578;9.760;2023-02-01T11:07:19;5.90;99.90
56428;DHT22;42331;53.578;9.760;2023-02-01T11:09:54;6.10;99.90
56428;DHT22;42331;53.578;9.760;2023-02-01T11:12:30;6.20;99.90
56428;DHT22;42331;53.578;9.760;2023-02-01T11:15:19;6.20;99.90
56428;DHT22;42331;53.578;9.760;2023-02-01T11:17:52;6.20;99.90
56428;DHT22;42331;53.578;9.760;2023-02-01T11:23:02;6.30;99.90
56428;DHT22;42331;53.578;9.760;2023-02-01T11:25:35;6.30;99.90
56428;DHT22;42331;53.578;9.760;2023-02-01T11:28:08;6.30;99.90
56428;DHT22;42331;53.578;9.760;2023-02-01T11:30:42;6.30;99.90
56428;DHT22;42331;53.578;9.760;2023-02-01T11:33:31;6.20;99.90
56428;DHT22;42331;53.578;9.760;2023-02-01T11:36:20;6.20;99.90
56428;DHT22;42331;53.578;9.760;2023-02-01T11:44:32;6.10;99.90
56428;DHT22;42331;53.578;9.760;2023-02-01T11:47:30;6.00;99.90
56428;DHT22;42331;53.578;9.760;2023-02-01T11:50:08;5.90;99.90
56428;DHT22;42331;53.578;9.760;2023-02-01T11:52:59;5.70;99.90
56428;DHT22;42331;53.578;9.760;2023-02-01T12:05:12;5.60;99.90
56428;DHT22;42331;53.578;9.760;2023-02-01T12:11:06;5.40;99.90
56428;DHT22;42331;53.578;9.760;2023-02-01T12:14:05;5.40;99.90
56428;DHT22;42331;53.578;9.760;2023-02-01T12:22:12;5.40;99.90
56428;DHT22;42331;53.578;9.760;2023-02-01T12:28:03;5.10;99.90
56428;DHT22;42331;53.578;9.760;2023-02-01T12:30:59;5.00;99.90
56428;DHT22;42331;53.578;9.760;2023-02-01T12:36:24;4.80;99.90
56428;DHT22;42331;53.578;9.760;2023-02-01T12:39:22;4.70;99.90
56428;DHT22;42331;53.578;9.760;2023-02-01T12:42:02;4.60;99.90
56428;DHT22;42331;53.578;9.760;2023-02-01T12:44:55;4.60;99.90
56428;DHT22;42331;53.578;9.760;2023-02-01T12:47:44;4.50;99.90
56428;DHT22;42331;53.578;9.760;2023-02-01T12:50:28;4.50;99.90
56428;DHT22;42331;53.578;9.760;2023-02-01T12:53:12;4.50;99.90
56428;DHT22;42331;53.578;9.760;2023-02-01T12:56:02;4.50;99.90
56428;DHT22;42331;53.578;9.760;2023-02-01T12:58:46;4.40;99.90
56428;DHT22;42331;53.578;9.760;2023-02-01T13:01:34;4.40;99.90
56428;DHT22;42331;53.578;9.760;2023-02-01T13:04:33;4.30;99.90
56428;DHT22;42331;53.578;9.760;2023-02-01T13:08:04;4.40;99.90
56428;DHT22;42331;53.578;9.760;2023-02-01T13:15:58;4.70;99.90
56428;DHT22;42331;53.578;9.760;2023-02-01T13:18:37;4.70;99.90
56428;DHT22;42331;53.578;9.760;2023-02-01T13:21:13;4.90;99.90
56428;DHT22;42331;53.578;9.760;2023-02-01T13:23:49;4.80;99.90
56428;DHT22;42331;53.578;9.760;2023-02-01T13:26:20;4.70;99.90
56428;DHT22;42331;53.578;9.760;2023-02-01T13:28:56;4.70;99.90
56428;DHT22;42331;53.578;9.760;2023-02-01T13:37:33;5.00;99.90
56428;DHT22;42331;53.578;9.760;2023-02-01T13:40:36;5.10;99.90
56428;DHT22;42331;53.578;9.760;2023-02-01T13:43:14;5.10;99.90
56428;DHT22;42331;53.578;9.760;2023-02-01T13:45:56;5.10;99.90
56428;DHT22;42331;53.578;9.760;2023-02-01T13:48:39;5.10;99.90
56428;DHT22;42331;53.578;9.760;2023-02-01T13:51:12;5.00;99.90
56428;DHT22;42331;53.578;9.760;2023-02-01T13:53:48;5.10;99.90
56428;DHT22;42331;53.578;9.760;2023-02-01T13:56:27;5.20;99.90
56428;DHT22;42331;53.578;9.760;2023-02-01T14:08:10;5.50;99.90
56428;DHT22;42331;53.578;9.760;2023-02-01T14:13:38;5.60;99.90
56428;DHT22;42331;53.578;9.760;2023-02-01T14:16:15;5.60;99.90
56428;DHT22;42331;53.578;9.760;2023-02-01T14:18:57;5.60;99.90
56428;DHT22;42331;53.578;9.760;2023-02-01T14:21:33;5.60;99.90
56428;DHT22;42331;53.578;9.760;2023-02-01T14:26:50;5.50;99.90
56428;DHT22;42331;53.578;9.760;2023-02-01T14:29:41;5.40;99.90
56428;DHT22;42331;53.578;9.760;2023-02-01T14:32:22;5.10;99.90
56428;DHT22;42331;53.578;9.760;2023-02-01T14:34:59;4.70;99.90
56428;DHT22;42331;53.578;9.760;2023-02-01T14:37:44;4.40;99.90
56428;DHT22;42331;53.578;9.760;2023-02-01T14:40:26;4.40;99.90
56428;DHT22;42331;53.578;9.760;2023-02-01T14:43:00;4.30;99.90
56428;DHT22;42331;53.578;9.760;2023-02-01T14:50:43;4.30;99.90
56428;DHT22;42331;53.578;9.760;2023-02-01T14:53:20;4.30;99.90
56428;DHT22;42331;53.578;9.760;2023-02-01T14:59:13;4.40;99.90
56428;DHT22;42331;53.578;9.760;2023-02-01T15:01:50;4.50;99.90
56428;DHT22;42331;53.578;9.760;2023-02-01T15:04:30;4.50;99.90
56428;DHT22;42331;53.578;9.760;2023-02-01T15:07:13;4.40;99.90
56428;DHT22;42331;53.578;9.760;2023-02-01T15:09:47;4.50;99.90
56428;DHT22;42331;53.578;9.760;2023-02-01T15:12:27;4.50;99.90
56428;DHT22;42331;53.578;9.760;2023-02-01T15:15:17;4.50;99.90
56428;DHT22;42331;53.578;9.760;2023-02-01T15:17:52;4.50;99.90
56428;DHT22;42331;53.578;9.760;2023-02-01T15:25:37;4.40;99.90
56428;DHT22;42331;53.578;9.760;2023-02-01T15:28:13;4.40;99.90
56428;DHT22;42331;53.578;9.760;2023-02-01T15:30:58;4.30;99.90
56428;DHT22;42331;53.578;9.760;2023-02-01T15:33:31;4.30;99.90
56428;DHT22;42331;53.578;9.760;2023-02-01T15:36:17;4.30;99.90
56428;DHT22;42331;53.578;9.760;2023-02-01T15:38:48;4.30;99.90
56428;DHT22;42331;53.578;9.760;2023-02-01T15:44:51;4.30;99.90
56428;DHT22;42331;53.578;9.760;2023-02-01T15:47:27;4.30;99.90
56428;DHT22;42331;53.578;9.760;2023-02-01T15:50:00;4.30;99.90
56428;DHT22;42331;53.578;9.760;2023-02-01T15:52:39;4.30;99.90
56428;DHT22;42331;53.578;9.760;2023-02-01T15:55:39;4.30;99.90
56428;DHT22;42331;53.578;9.760;2023-02-01T15:58:21;4.20;99.90
56428;DHT22;42331;53.578;9.760;2023-02-01T16:01:02;4.30;99.90
56428;DHT22;42331;53.578;9.760;2023-02-01T16:03:39;4.30;99.90
56428;DHT22;42331;53.578;9.760;2023-02-01T16:11:31;4.40;99.90
56428;DHT22;42331;53.578;9.760;2023-02-01T16:14:02;4.40;99.90
56428;DHT22;42331;53.578;9.760;2023-02-01T16:16:32;4.50;99.90
56428;DHT22;42331;53.578;9.760;2023-02-01T16:19:03;4.50;99.90
56428;DHT22;42331;53.578;9.760;2023-02-01T16:21:34;4.60;99.90
56428;DHT22;42331;53.578;9.760;2023-02-01T16:24:07;4.50;99.90
56428;DHT22;42331;53.578;9.760;2023-02-01T16:26:38;4.60;99.90
56428;DHT22;42331;53.578;9.760;2023-02-01T16:29:09;4.50;99.90
56428;DHT22;42331;53.578;9.760;2023-02-01T16:31:41;4.60;99.90
56428;DHT22;42331;53.578;9.760;2023-02-01T16:34:16;4.60;99.90
56428;DHT22;42331;53.578;9.760;2023-02-01T16:36:49;4.70;99.90
56428;DHT22;42331;53.578;9.760;2023-02-01T16:39:25;4.70;99.90
56428;DHT22;42331;53.578;9.760;2023-02-01T16:41:58;4.90;99.90
56428;DHT22;42331;53.578;9.760;2023-02-01T16:44:28;4.90;99.90
56428;DHT22;42331;53.578;9.760;2023-02-01T16:46:59;5.00;99.90
56428;DHT22;42331;53.578;9.760;2023-02-01T16:49:30;5.00;99.90
56428;DHT22;42331;53.578;9.760;2023-02-01T16:52:01;5.00;99.90
56428;DHT22;42331;53.578;9.760;2023-02-01T16:54:32;5.10;99.90
56428;DHT22;42331;53.578;9.760;2023-02-01T16:57:03;5.10;99.90
56428;DHT22;42331;53.578;9.760;2023-02-01T16:59:36;5.20;99.90
56428;DHT22;42331;53.578;9.760;2023-02-01T17:02:12;5.20;99.90
56428;DHT22;42331;53.578;9.760;2023-02-01T17:04:43;5.20;99.90
56428;DHT22;42331;53.578;9.760;2023-02-01T17:07:20;5.20;99.90
56428;DHT22;42331;53.578;9.760;2023-02-01T17:09:57;5.20;99.90
56428;DHT22;42331;53.578;9.760;2023-02-01T17:12:37;5.10;99.90
56428;DHT22;42331;53.578;9.760;2023-02-01T17:15:09;5.00;99.90
56428;DHT22;42331;53.578;9.760;2023-02-01T17:17:41;5.00;99.90
56428;DHT22;42331;53.578;9.760;2023-02-01T17:20:17;5.00;99.90
56428;DHT22;42331;53.578;9.760;2023-02-01T17:22:50;5.00;99.90
56428;DHT22;42331;53.578;9.760;2023-02-01T17:25:21;5.00;99.90
56428;DHT22;42331;53.578;9.760;2023-02-01T17:27:52;4.90;99.90
56428;DHT22;42331;53.578;9.760;2023-02-01T17:30:23;4.90;99.90
56428;DHT22;42331;53.578;9.760;2023-02-01T17:32:54;5.00;99.90
56428;DHT22;42331;53.578;9.760;2023-02-01T17:35:27;5.00;99.90
56428;DHT22;42331;53.578;9.760;2023-02-01T17:37:59;5.10;99.90
56428;DHT22;42331;53.578;9.760;2023-02-01T17:40:29;5.00;99.90
56428;DHT22;42331;53.578;9.760;2023-02-01T17:43:01;4.90;99.90
56428;DHT22;42331;53.578;9.760;2023-02-01T17:45:37;5.00;99.90
56428;DHT22;42331;53.578;9.760;2023-02-01T17:48:10;5.00;99.90
56428;DHT22;42331;53.578;9.760;2023-02-01T17:50:40;5.00;99.90
56428;DHT22;42331;53.578;9.760;2023-02-01T17:53:12;5.00;99.90
56428;DHT22;42331;53.578;9.760;2023-02-01T17:55:44;5.00;99.90
56428;DHT22;42331;53.578;9.760;2023-02-01T17:58:16;5.00;99.90
56428;DHT22;42331;53.578;9.760;2023-02-01T18:00:47;5.00;99.90
56428;DHT22;42331;53.578;9.760;2023-02-01T18:03:31;5.00;99.90
56428;DHT22;42331;53.578;9.760;2023-02-01T18:06:20;5.00;99.90
56428;DHT22;42331;53.578;9.760;2023-02-01T18:08:55;5.00;99.90
56428;DHT22;42331;53.578;9.760;2023-02-01T18:11:26;5.00;99.90
56428;DHT22;42331;53.578;9.760;2023-02-01T18:13:59;5.00;99.90
56428;DHT22;42331;53.578;9.760;2023-02-01T18:16:37;5.00;99.90
56428;DHT22;42331;53.578;9.760;2023-02-01T18:19:08;5.10;99.90
56428;DHT22;42331;53.578;9.760;2023-02-01T18:21:43;5.00;99.90
56428;DHT22;42331;53.578;9.760;2023-02-01T18:24:15;5.00;99.90
56428;DHT22;42331;53.578;9.760;2023-02-01T18:26:46;5.00;99.90
56428;DHT22;42331;53.578;9.760;2023-02-01T18:29:17;5.00;99.90
56428;DHT22;42331;53.578;9.760;2023-02-01T18:31:48;5.00;99.90
56428;DHT22;42331;53.578;9.760;2023-02-01T18:34:20;5.20;99.90
56428;DHT22;42331;53.578;9.760;2023-02-01T18:36:52;5.10;99.90
56428;DHT22;42331;53.578;9.760;2023-02-01T18:39:23;5.10;99.90
56428;DHT22;42331;53.578;9.760;2023-02-01T18:41:53;5.20;99.90
56428;DHT22;42331;53.578;9.760;2023-02-01T18:44:24;5.10;99.90
56428;DHT22;42331;53.578;9.760;2023-02-01T18:46:55;5.10;99.90
56428;DHT22;42331;53.578;9.760;2023-02-01T18:49:26;5.10;99.90
56428;DHT22;42331;53.578;9.760;2023-02-01T18:51:57;5.10;99.90
56428;DHT22;42331;53.578;9.760;2023-02-01T18:54:28;5.20;99.90
56428;DHT22;42331;53.578;9.760;2023-02-01T18:57:00;5.20;99.90
56428;DHT22;42331;53.578;9.760;2023-02-01T18:59:30;5.20;99.90